Time;durP1;ratioP1;P1;durP2;ratioP2;P2;SDS_P1;SDS_P2;PMS_P1;PMS_P2;Temp;Humidity;BMP_temperature;BMP_pressure;BME280_temperature;BME280_humidity;BME280_pressure;Samples;Min_cycle;Max_cycle;Signal;HPM_P1;HPM_P2
2021/12/10 00:00:49;;;;;;;6.28;3.10;;;4.80;73.40;;;;;;5051422;28;20033;-70
2021/12/10 00:03:26;;;;;;;6.13;2.85;;;4.80;73.50;;;;;;5071845;28;20016;-69
2021/12/10 00:06:10;;;;;;;7.97;2.95;;;4.80;73.30;;;;;;5072793;28;20103;-70
2021/12/10 00:08:38;;;;;;;6.32;2.70;;;4.80;73.30;;;;;;5073192;28;20023;-69
2021/12/10 00:11:11;;;;;;;11.95;3.20;;;4.80;73.30;;;;;;5071948;28;20162;-70
2021/12/10 00:13:37;;;;;;;8.63;2.80;;;4.80;73.40;;;;;;5069828;28;20420;-69
2021/12/10 00:16:04;;;;;;;6.38;2.92;;;4.70;73.30;;;;;;5072391;28;20017;-69
2021/12/10 00:18:34;;;;;;;12.00;3.35;;;4.70;73.40;;;;;;5072446;28;20029;-69
2021/12/10 00:21:04;;;;;;;6.45;3.15;;;4.70;73.40;;;;;;5053926;28;20025;-70
2021/12/10 00:23:31;;;;;;;6.25;3.00;;;4.70;73.40;;;;;;5072772;28;20028;-69
2021/12/10 00:25:58;;;;;;;9.45;3.70;;;4.60;73.30;;;;;;5059863;28;20450;-70
2021/12/10 00:28:32;;;;;;;11.70;4.10;;;4.70;73.30;;;;;;5054127;28;20123;-70
2021/12/10 00:31:14;;;;;;;;;;;4.60;73.20;;;;;;5054193;28;20024;-70
2021/12/10 00:33:46;;;;;;;7.40;3.20;;;4.70;73.30;;;;;;5055390;28;20011;-71
2021/12/10 00:36:12;;;;;;;8.77;3.25;;;4.60;72.90;;;;;;5070599;28;20033;-70
2021/12/10 00:38:38;;;;;;;8.55;3.92;;;4.60;72.80;;;;;;5072879;28;20027;-69
2021/12/10 00:41:06;;;;;;;9.68;3.80;;;4.50;72.80;;;;;;5054203;28;20115;-69
2021/12/10 00:43:32;;;;;;;8.77;4.10;;;4.50;72.90;;;;;;5073057;28;20020;-69
2021/12/10 00:45:58;;;;;;;10.80;4.35;;;4.50;72.90;;;;;;5064323;28;20354;-69
2021/12/10 00:48:24;;;;;;;8.63;4.07;;;4.40;72.90;;;;;;5053365;28;20078;-69
2021/12/10 00:50:53;;;;;;;15.48;4.78;;;4.40;72.90;;;;;;5072952;28;20028;-69
2021/12/10 00:53:18;;;;;;;9.30;4.80;;;4.40;73.00;;;;;;5054118;28;20037;-70
2021/12/10 00:55:44;;;;;;;14.27;5.43;;;4.30;73.00;;;;;;5054755;28;20031;-70
2021/12/10 00:58:12;;;;;;;7.68;4.82;;;4.30;73.00;;;;;;5050640;28;20068;-70
2021/12/10 01:00:43;;;;;;;10.65;5.00;;;4.30;73.00;;;;;;5052908;28;20354;-70
2021/12/10 01:03:14;;;;;;;8.00;4.05;;;4.30;73.00;;;;;;5051521;28;20033;-70
2021/12/10 01:05:48;;;;;;;7.40;4.10;;;4.30;73.00;;;;;;5051651;28;20029;-70
2021/12/10 01:08:14;;;;;;;7.13;4.30;;;4.20;73.00;;;;;;5051780;28;21069;-69
2021/12/10 01:10:45;;;;;;;9.93;4.82;;;4.20;73.00;;;;;;5052378;28;20059;-70
2021/12/10 01:13:15;;;;;;;8.52;4.50;;;4.20;73.00;;;;;;5050906;28;20052;-70
2021/12/10 01:24:36;;;;;;;8.40;4.28;;;4.10;72.80;;;;;;5052411;28;20086;-70
2021/12/10 01:27:13;;;;;;;8.50;4.22;;;4.00;72.70;;;;;;5050949;28;20023;-70
2021/12/10 01:29:44;;;;;;;9.75;4.10;;;3.90;72.60;;;;;;5049794;28;20027;-70
2021/12/10 01:32:16;;;;;;;6.35;4.63;;;3.90;72.50;;;;;;5052791;28;20041;-70
2021/12/10 01:34:43;;;;;;;7.53;4.60;;;3.90;72.50;;;;;;5053044;28;20699;-70
2021/12/10 01:37:10;;;;;;;8.80;4.70;;;3.80;72.60;;;;;;5051452;28;20048;-70
2021/12/10 01:39:38;;;;;;;10.35;4.97;;;3.80;72.60;;;;;;5050684;28;20025;-70
2021/12/10 01:42:20;;;;;;;13.48;5.20;;;3.80;72.50;;;;;;5052599;28;20112;-70
2021/12/10 01:44:51;;;;;;;11.60;5.05;;;3.70;72.50;;;;;;5050815;28;20017;-70
2021/12/10 01:47:20;;;;;;;8.13;4.85;;;3.70;72.40;;;;;;5052007;28;20036;-70
2021/12/10 01:49:46;;;;;;;10.27;4.80;;;3.60;72.30;;;;;;5051083;28;20024;-70
2021/12/10 01:52:14;;;;;;;8.98;4.78;;;3.50;72.20;;;;;;5050883;28;20056;-69
2021/12/10 01:54:45;;;;;;;10.73;5.15;;;3.50;72.20;;;;;;5046557;28;20048;-69
2021/12/10 01:57:13;;;;;;;9.95;5.05;;;3.40;72.20;;;;;;5050323;28;20040;-69
2021/12/10 01:59:40;;;;;;;9.98;5.05;;;3.40;72.20;;;;;;5050608;28;20491;-69
2021/12/10 02:02:14;;;;;;;8.77;5.15;;;3.30;72.20;;;;;;5052514;28;20021;-70
2021/12/10 02:04:41;;;;;;;12.50;5.22;;;3.30;72.20;;;;;;5043040;28;20156;-69
2021/12/10 02:07:10;;;;;;;11.18;5.70;;;3.20;72.20;;;;;;5049425;28;20036;-70
2021/12/10 02:09:36;;;;;;;9.85;5.90;;;3.10;72.10;;;;;;5050695;28;20501;-70
2021/12/10 02:12:02;;;;;;;16.00;5.93;;;3.10;72.20;;;;;;5052035;28;20037;-70
2021/12/10 02:14:28;;;;;;;16.70;6.10;;;3.10;72.40;;;;;;5049450;28;20477;-70
2021/12/10 02:16:59;;;;;;;11.82;5.80;;;3.00;72.50;;;;;;5050587;28;20028;-69
2021/12/10 02:19:25;;;;;;;10.20;6.38;;;3.00;72.50;;;;;;5051088;28;20017;-70
2021/12/10 02:21:52;;;;;;;12.75;6.55;;;3.00;72.80;;;;;;5054927;28;20025;-70
2021/12/10 02:24:19;;;;;;;12.38;6.07;;;2.90;72.90;;;;;;5053362;28;20386;-70
2021/12/10 02:26:49;;;;;;;11.02;6.45;;;2.90;73.10;;;;;;5056228;28;20103;-70
2021/12/10 02:29:17;;;;;;;14.48;7.28;;;2.80;73.20;;;;;;5054759;28;20100;-70
2021/12/10 02:31:43;;;;;;;13.38;7.30;;;2.80;73.30;;;;;;5056127;28;20433;-70
2021/12/10 02:34:09;;;;;;;14.25;8.18;;;2.80;73.40;;;;;;5055866;28;20057;-70
2021/12/10 02:36:39;;;;;;;16.33;8.63;;;2.80;73.50;;;;;;5056013;28;20412;-70
2021/12/10 02:39:06;;;;;;;15.02;8.23;;;2.80;73.70;;;;;;5053924;28;20031;-70
2021/12/10 02:41:32;;;;;;;15.65;9.02;;;2.80;73.70;;;;;;5056061;28;20025;-70
2021/12/10 02:44:01;;;;;;;16.33;8.32;;;2.80;73.70;;;;;;5053755;28;20465;-70
2021/12/10 02:46:29;;;;;;;14.80;8.57;;;2.90;73.80;;;;;;5055083;28;20112;-70
2021/12/10 02:48:55;;;;;;;13.82;7.53;;;2.90;73.80;;;;;;5054492;28;20029;-70
2021/12/10 02:51:21;;;;;;;11.82;7.70;;;2.90;73.90;;;;;;5056778;28;20040;-70
2021/12/10 02:53:47;;;;;;;14.43;8.18;;;2.90;73.80;;;;;;5054012;28;20061;-70
2021/12/10 02:56:17;;;;;;;20.13;8.10;;;2.90;73.90;;;;;;5053159;28;20071;-70
2021/12/10 02:58:44;;;;;;;12.30;7.65;;;2.90;73.90;;;;;;5072360;28;20056;-70
2021/12/10 03:01:20;;;;;;;15.60;8.65;;;3.00;73.90;;;;;;5067578;28;20025;-70
2021/12/10 03:03:46;;;;;;;13.57;8.50;;;3.00;74.00;;;;;;5052884;28;20422;-70
2021/12/10 03:06:14;;;;;;;22.50;9.15;;;3.00;74.60;;;;;;5053851;28;20059;-70
2021/12/10 03:08:43;;;;;;;21.30;11.00;;;3.00;73.90;;;;;;5073043;28;20028;-70
2021/12/10 03:11:08;;;;;;;15.27;8.82;;;3.00;74.20;;;;;;5064404;28;20021;-70
2021/12/10 03:13:35;;;;;;;16.80;9.18;;;3.10;73.90;;;;;;5053694;28;20037;-70
2021/12/10 03:16:00;;;;;;;14.65;8.40;;;3.00;73.90;;;;;;5063914;28;20024;-70
2021/12/10 03:18:27;;;;;;;15.38;7.95;;;3.10;73.90;;;;;;5047970;28;20098;-70
2021/12/10 03:20:53;;;;;;;14.25;7.97;;;3.10;73.80;;;;;;5056005;28;20538;-70
2021/12/10 03:23:19;;;;;;;16.55;9.27;;;3.10;73.80;;;;;;5064440;28;20052;-71
2021/12/10 03:25:45;;;;;;;14.88;8.75;;;3.10;73.80;;;;;;5065382;28;20017;-70
2021/12/10 03:28:12;;;;;;;13.98;8.13;;;3.20;73.80;;;;;;5061269;28;20079;-70
2021/12/10 03:30:42;;;;;;;11.23;7.65;;;3.20;73.70;;;;;;5052938;28;20036;-70
2021/12/10 03:33:08;;;;;;;13.02;7.65;;;3.20;73.60;;;;;;5058249;28;20032;-71
2021/12/10 03:35:41;;;;;;;13.60;7.53;;;3.20;73.60;;;;;;5058738;28;20079;-70
2021/12/10 03:38:08;;;;;;;12.60;7.85;;;3.20;73.60;;;;;;5062527;28;20108;-70
2021/12/10 03:40:35;;;;;;;17.30;8.48;;;3.20;73.70;;;;;;5053345;28;20423;-70
2021/12/10 03:43:02;;;;;;;13.65;8.75;;;3.20;73.80;;;;;;5059206;28;20025;-70
2021/12/10 03:45:32;;;;;;;12.02;7.50;;;3.20;73.80;;;;;;5054922;28;20096;-70
2021/12/10 03:48:00;;;;;;;12.60;7.38;;;3.20;73.60;;;;;;5060810;28;20036;-70
2021/12/10 03:50:30;;;;;;;15.02;7.30;;;3.30;73.60;;;;;;5058012;28;20048;-71
2021/12/10 03:52:55;;;;;;;10.27;6.88;;;3.30;73.60;;;;;;5058276;28;20504;-70
2021/12/10 03:55:23;;;;;;;12.45;7.28;;;3.30;73.50;;;;;;5067102;28;20028;-70
2021/12/10 03:57:50;;;;;;;16.73;7.13;;;3.30;73.60;;;;;;5070260;28;20067;-70
2021/12/10 04:00:18;;;;;;;9.98;6.85;;;3.30;73.70;;;;;;5073133;28;20461;-70
2021/12/10 04:02:44;;;;;;;18.63;7.53;;;3.30;73.60;;;;;;5054963;28;20032;-70
2021/12/10 04:05:10;;;;;;;11.30;7.53;;;3.30;73.60;;;;;;5061947;28;20038;-70
2021/12/10 04:07:36;;;;;;;13.65;7.50;;;3.30;73.70;;;;;;5062512;28;20100;-70
2021/12/10 04:10:04;;;;;;;15.18;7.88;;;3.40;73.70;;;;;;5072078;28;20036;-70
2021/12/10 04:12:30;;;;;;;13.98;7.28;;;3.40;73.60;;;;;;5073579;28;20033;-70
2021/12/10 04:14:56;;;;;;;14.38;7.40;;;3.40;73.60;;;;;;5072196;28;20027;-70
2021/12/10 04:17:23;;;;;;;13.88;6.80;;;3.40;73.60;;;;;;5073915;28;20036;-71
2021/12/10 04:19:50;;;;;;;12.43;6.65;;;3.40;73.40;;;;;;5072901;28;20024;-71
2021/12/10 04:22:17;;;;;;;16.65;7.22;;;3.50;73.40;;;;;;5055542;28;20028;-71
2021/12/10 04:24:43;;;;;;;13.98;7.50;;;3.50;73.40;;;;;;5072094;28;20125;-71
2021/12/10 04:27:12;;;;;;;13.50;7.50;;;3.50;73.40;;;;;;5055923;28;20480;-71
2021/12/10 04:29:38;;;;;;;11.85;6.70;;;3.50;73.30;;;;;;5075659;28;20021;-70
2021/12/10 04:32:06;;;;;;;12.85;7.50;;;3.50;73.30;;;;;;5057087;28;20040;-71
2021/12/10 04:34:32;;;;;;;14.85;7.13;;;3.50;73.30;;;;;;5073043;28;20029;-70
2021/12/10 04:37:01;;;;;;;17.10;8.15;;;3.50;73.20;;;;;;5072460;28;20020;-71
2021/12/10 04:39:29;;;;;;;250.90;78.35;;;3.50;73.20;;;;;;5072017;28;20439;-71
2021/12/10 04:41:55;;;;;;;76.90;30.15;;;3.50;73.10;;;;;;5072316;28;20391;-71
2021/12/10 04:44:21;;;;;;;37.83;14.10;;;3.50;73.00;;;;;;5074776;28;20028;-71
2021/12/10 04:46:46;;;;;;;57.97;20.23;;;3.60;73.00;;;;;;5071677;28;20036;-71
2021/12/10 04:49:14;;;;;;;110.15;36.05;;;3.50;72.90;;;;;;5073272;28;20031;-70
2021/12/10 04:51:46;;;;;;;38.22;14.90;;;3.50;72.90;;;;;;5053878;28;20068;-70
2021/12/10 04:54:14;;;;;;;20.67;10.57;;;3.50;72.90;;;;;;5063350;28;20028;-71
2021/12/10 04:56:41;;;;;;;22.88;9.38;;;3.50;72.90;;;;;;5078466;28;20030;-70
2021/12/10 04:59:09;;;;;;;58.88;28.45;;;3.50;73.00;;;;;;5070692;28;20456;-71
2021/12/10 05:01:36;;;;;;;21.50;11.95;;;3.50;72.90;;;;;;5072807;28;20124;-70
2021/12/10 05:04:05;;;;;;;16.40;8.68;;;3.40;72.90;;;;;;5072143;28;20021;-71
2021/12/10 05:06:30;;;;;;;13.95;7.60;;;3.40;72.90;;;;;;5072280;28;20081;-70
2021/12/10 05:08:56;;;;;;;22.65;10.95;;;3.40;73.00;;;;;;5075857;28;20104;-70
2021/12/10 05:11:22;;;;;;;16.33;9.20;;;3.40;73.00;;;;;;5072314;28;20484;-70
2021/12/10 05:13:48;;;;;;;21.60;9.60;;;3.40;73.00;;;;;;5063677;28;20029;-71
2021/12/10 05:16:16;;;;;;;20.40;9.32;;;3.40;73.00;;;;;;5072932;28;20047;-71
2021/12/10 05:18:45;;;;;;;14.23;8.63;;;3.30;73.00;;;;;;5055351;28;20086;-70
2021/12/10 05:21:13;;;;;;;14.57;9.05;;;3.40;73.80;;;;;;5060789;28;20110;-70
2021/12/10 05:23:39;;;;;;;12.10;8.07;;;3.30;73.10;;;;;;5065043;28;20138;-70
2021/12/10 05:26:06;;;;;;;18.25;9.63;;;3.30;73.70;;;;;;5054718;28;20024;-71
2021/12/10 05:28:32;;;;;;;17.83;9.63;;;3.30;72.90;;;;;;5051415;28;20017;-70
2021/12/10 05:30:59;;;;;;;17.67;9.40;;;3.30;72.90;;;;;;5054043;28;20511;-70
2021/12/10 05:33:27;;;;;;;17.05;9.07;;;3.20;72.70;;;;;;5072692;28;20028;-70
2021/12/10 05:35:53;;;;;;;14.50;8.52;;;3.20;72.60;;;;;;5071196;28;20017;-70
2021/12/10 05:38:21;;;;;;;20.30;9.43;;;3.20;72.60;;;;;;5072139;28;20040;-70
2021/12/10 05:40:52;;;;;;;16.33;9.27;;;3.10;72.50;;;;;;5071287;28;20020;-70
2021/12/10 05:43:18;;;;;;;16.45;9.15;;;3.10;72.50;;;;;;5052984;28;21573;-70
2021/12/10 05:45:45;;;;;;;19.27;8.93;;;3.00;72.50;;;;;;5072328;28;20172;-70
2021/12/10 05:48:12;;;;;;;16.13;9.02;;;2.90;72.60;;;;;;5074810;28;20029;-70
2021/12/10 05:50:38;;;;;;;17.20;8.80;;;2.90;72.70;;;;;;5053943;28;20028;-70
2021/12/10 05:53:06;;;;;;;16.33;8.93;;;2.80;72.90;;;;;;5052636;28;20120;-70
2021/12/10 05:55:33;;;;;;;14.80;9.68;;;2.80;73.10;;;;;;5073283;28;20024;-70
2021/12/10 05:57:59;;;;;;;16.17;10.15;;;2.80;73.30;;;;;;5074622;28;20043;-70
2021/12/10 06:00:32;;;;;;;16.48;10.38;;;2.80;73.40;;;;;;5058171;28;20033;-70
2021/12/10 06:02:58;;;;;;;18.20;9.88;;;2.80;73.60;;;;;;5074833;28;20078;-70
2021/12/10 06:05:25;;;;;;;14.35;8.93;;;2.80;73.50;;;;;;5076340;28;20037;-70
2021/12/10 06:07:51;;;;;;;16.33;9.50;;;2.80;73.50;;;;;;5076172;28;20029;-71
2021/12/10 06:10:18;;;;;;;16.17;9.35;;;2.80;73.50;;;;;;5069977;28;20037;-72
2021/12/10 06:12:45;;;;;;;15.85;9.32;;;2.80;73.50;;;;;;5076621;28;20500;-70
2021/12/10 06:15:12;;;;;;;16.17;8.95;;;2.80;73.50;;;;;;5075425;28;20086;-70
2021/12/10 06:17:38;;;;;;;14.45;9.07;;;2.80;73.40;;;;;;5056665;28;20178;-71
2021/12/10 06:20:06;;;;;;;15.70;8.27;;;2.80;73.30;;;;;;5075909;28;20055;-70
2021/12/10 06:22:32;;;;;;;16.58;9.68;;;2.80;73.30;;;;;;5081719;28;20033;-70
2021/12/10 06:24:58;;;;;;;15.40;9.20;;;2.80;73.20;;;;;;5087763;28;20100;-70
2021/12/10 06:27:24;;;;;;;14.77;9.02;;;2.80;73.10;;;;;;5073105;28;20028;-71
2021/12/10 06:29:49;;;;;;;14.90;9.10;;;2.70;73.00;;;;;;5053362;28;20031;-70
2021/12/10 06:32:15;;;;;;;15.23;8.38;;;2.70;72.90;;;;;;5076764;28;20040;-70
2021/12/10 06:34:41;;;;;;;16.35;10.57;;;2.70;73.50;;;;;;5076190;28;20353;-70
2021/12/10 06:37:07;;;;;;;16.80;9.48;;;2.60;72.70;;;;;;5084819;28;20040;-70
2021/12/10 06:39:33;;;;;;;17.40;9.32;;;2.60;72.70;;;;;;5073184;28;20107;-70
2021/12/10 06:42:00;;;;;;;15.70;9.35;;;2.60;72.70;;;;;;5075855;28;20024;-71
2021/12/10 06:44:26;;;;;;;15.18;8.63;;;2.60;72.80;;;;;;5084616;28;20030;-70
2021/12/10 06:46:52;;;;;;;25.52;10.85;;;2.50;72.80;;;;;;5089738;28;20039;-70
2021/12/10 06:49:18;;;;;;;17.10;10.25;;;2.50;72.80;;;;;;5060094;28;20024;-70
2021/12/10 06:51:45;;;;;;;21.08;10.52;;;2.50;73.00;;;;;;5073862;28;20029;-71
2021/12/10 06:54:11;;;;;;;18.40;10.35;;;2.50;73.10;;;;;;5074954;28;20047;-70
2021/12/10 06:56:37;;;;;;;22.92;11.07;;;2.50;73.10;;;;;;5073616;28;20028;-70
2021/12/10 06:59:06;;;;;;;25.58;10.32;;;2.40;73.10;;;;;;5074919;28;20020;-70
2021/12/10 07:01:36;;;;;;;19.02;10.48;;;2.40;73.10;;;;;;5073984;28;20112;-71
2021/12/10 07:04:05;;;;;;;23.13;10.25;;;2.40;73.30;;;;;;5063246;28;20052;-70
2021/12/10 07:06:31;;;;;;;39.17;11.95;;;2.40;73.30;;;;;;5063085;28;20396;-70
2021/12/10 07:08:59;;;;;;;39.38;12.32;;;2.30;73.40;;;;;;5075026;28;20024;-70
2021/12/10 07:11:25;;;;;;;44.55;13.50;;;2.30;73.50;;;;;;5073757;28;20024;-70
2021/12/10 07:13:55;;;;;;;40.22;11.95;;;2.30;73.40;;;;;;5074945;28;20048;-70
2021/12/10 07:16:22;;;;;;;40.10;14.23;;;2.30;73.60;;;;;;5059226;28;20028;-71
2021/12/10 07:18:48;;;;;;;32.22;13.40;;;2.30;73.50;;;;;;5073664;28;20029;-70
2021/12/10 07:21:14;;;;;;;30.90;12.57;;;2.30;73.60;;;;;;5074088;28;20070;-70
2021/12/10 07:23:42;;;;;;;33.28;12.82;;;2.30;73.70;;;;;;5074848;28;20032;-71
2021/12/10 07:26:12;;;;;;;35.38;12.93;;;2.30;73.60;;;;;;5056033;28;20032;-71
2021/12/10 07:28:38;;;;;;;27.10;12.77;;;2.30;73.80;;;;;;5073752;28;20028;-70
2021/12/10 07:31:05;;;;;;;28.90;13.13;;;2.30;74.00;;;;;;5074035;28;20099;-70
2021/12/10 07:33:31;;;;;;;25.90;12.82;;;2.30;74.00;;;;;;5074378;28;20064;-70
2021/12/10 07:35:57;;;;;;;24.90;11.52;;;2.30;74.00;;;;;;5075986;28;20060;-70
2021/12/10 07:38:22;;;;;;;19.63;11.23;;;2.30;73.60;;;;;;5060177;28;20033;-70
2021/12/10 07:40:49;;;;;;;20.55;11.30;;;2.30;73.60;;;;;;5055831;28;20429;-70
2021/12/10 07:43:15;;;;;;;19.88;10.40;;;2.30;73.50;;;;;;5074224;28;20031;-71
2021/12/10 07:45:46;;;;;;;23.13;9.50;;;2.30;73.60;;;;;;5055854;28;20388;-71
2021/12/10 07:48:16;;;;;;;13.55;8.95;;;2.40;73.50;;;;;;5073174;28;20034;-70
2021/12/10 07:50:49;;;;;;;17.80;8.95;;;2.40;73.40;;;;;;5074436;28;20028;-70
2021/12/10 07:53:18;;;;;;;11.60;6.13;;;2.40;73.40;;;;;;5073754;28;20060;-70
2021/12/10 07:55:43;;;;;;;18.63;9.27;;;2.30;73.20;;;;;;5074015;28;20050;-72
2021/12/10 07:58:09;;;;;;;19.05;9.30;;;2.40;73.20;;;;;;5072468;28;20052;-70
2021/12/10 08:00:38;;;;;;;14.45;8.65;;;2.40;73.20;;;;;;5065158;28;20024;-71
2021/12/10 08:03:04;;;;;;;17.50;8.88;;;2.40;73.20;;;;;;5073494;28;20048;-70
2021/12/10 08:05:30;;;;;;;19.10;9.45;;;2.40;73.40;;;;;;5094731;28;20028;-71
2021/12/10 08:07:56;;;;;;;17.30;9.98;;;2.40;73.50;;;;;;5077480;28;20532;-71
2021/12/10 08:10:22;;;;;;;16.67;9.70;;;2.40;73.50;;;;;;5072993;28;20388;-74
2021/12/10 08:12:48;;;;;;;19.05;9.90;;;2.50;73.40;;;;;;5067758;28;20040;-73
2021/12/10 08:15:15;;;;;;;16.23;9.82;;;2.50;73.50;;;;;;5070538;28;20040;-73
2021/12/10 08:17:42;;;;;;;18.73;10.25;;;2.50;73.50;;;;;;5069559;28;20400;-73
2021/12/10 08:20:10;;;;;;;25.88;11.50;;;2.60;73.60;;;;;;5073838;28;20020;-73
2021/12/10 08:22:36;;;;;;;29.98;11.57;;;2.70;73.40;;;;;;5057342;28;20066;-73
2021/12/10 08:25:03;;;;;;;37.63;10.98;;;2.80;73.20;;;;;;5055968;28;20101;-74
2021/12/10 08:27:29;;;;;;;26.10;9.88;;;2.80;73.10;;;;;;5071101;28;20595;-74
2021/12/10 08:29:58;;;;;;;27.10;10.77;;;2.80;73.10;;;;;;5058335;28;20028;-73
2021/12/10 08:32:24;;;;;;;37.35;9.10;;;2.90;73.00;;;;;;5072270;28;20025;-73
2021/12/10 08:34:50;;;;;;;21.95;7.53;;;2.90;72.70;;;;;;5071889;28;20396;-73
2021/12/10 08:37:16;;;;;;;21.60;7.40;;;2.90;72.70;;;;;;5081334;28;20077;-73
2021/12/10 08:39:43;;;;;;;22.23;9.23;;;3.00;72.80;;;;;;5064415;28;20028;-73
2021/12/10 08:42:11;;;;;;;20.73;8.50;;;3.00;72.60;;;;;;5063285;28;20030;-73
2021/12/10 08:44:37;;;;;;;16.05;8.35;;;3.00;72.60;;;;;;5064387;28;20100;-73
2021/12/10 08:47:03;;;;;;;13.52;7.50;;;3.00;72.70;;;;;;5067502;28;20095;-73
2021/12/10 08:49:29;;;;;;;20.58;7.55;;;3.00;72.40;;;;;;5071631;28;20031;-73
2021/12/10 08:51:57;;;;;;;15.15;7.47;;;3.00;72.30;;;;;;5072142;28;20099;-73
2021/12/10 08:54:26;;;;;;;15.70;8.35;;;3.00;72.40;;;;;;5089556;28;20112;-73
2021/12/10 08:56:52;;;;;;;13.35;8.27;;;3.00;72.20;;;;;;5065419;28;20028;-73
2021/12/10 08:59:21;;;;;;;19.90;9.00;;;3.00;72.20;;;;;;5070956;28;20499;-73
2021/12/10 09:01:50;;;;;;;21.42;9.32;;;3.00;72.40;;;;;;5071442;28;20029;-73
2021/12/10 09:04:16;;;;;;;20.85;10.40;;;3.10;72.60;;;;;;5072963;28;20020;-73
2021/12/10 09:06:45;;;;;;;20.75;10.60;;;3.10;72.60;;;;;;5070422;28;20086;-73
2021/12/10 09:09:13;;;;;;;23.98;10.65;;;3.20;72.50;;;;;;5073819;28;20388;-73
2021/12/10 09:11:43;;;;;;;19.05;8.82;;;3.20;72.50;;;;;;5053503;28;20064;-72
2021/12/10 09:14:10;;;;;;;13.02;7.85;;;3.20;72.50;;;;;;5070064;28;20058;-73
2021/12/10 09:16:37;;;;;;;14.88;8.73;;;3.30;72.40;;;;;;5085271;28;20047;-73
2021/12/10 09:19:07;;;;;;;14.55;8.10;;;3.30;72.20;;;;;;5073976;28;20423;-74
2021/12/10 09:21:34;;;;;;;12.60;6.88;;;3.40;72.20;;;;;;5054763;28;20017;-74
2021/12/10 09:24:06;;;;;;;10.80;6.70;;;3.40;72.20;;;;;;5051522;28;20020;-73
2021/12/10 09:26:40;;;;;;;10.73;6.47;;;3.40;72.10;;;;;;5062158;28;20029;-73
2021/12/10 09:29:09;;;;;;;11.50;6.20;;;3.50;72.10;;;;;;5073201;28;20448;-73
2021/12/10 09:31:36;;;;;;;10.18;6.40;;;3.50;72.00;;;;;;5070301;28;20119;-74
2021/12/10 09:34:03;;;;;;;12.50;6.68;;;3.60;71.90;;;;;;5051634;28;20028;-74
2021/12/10 09:36:29;;;;;;;11.23;5.82;;;3.70;71.90;;;;;;5072454;28;20029;-73
2021/12/10 09:38:56;;;;;;;11.07;6.68;;;3.70;71.70;;;;;;5070020;28;20078;-74
2021/12/10 09:41:22;;;;;;;12.65;5.78;;;3.80;71.70;;;;;;5072333;28;20025;-73
2021/12/10 09:43:49;;;;;;;9.35;6.15;;;3.80;71.60;;;;;;5071302;28;20032;-74
2021/12/10 09:46:15;;;;;;;8.13;5.38;;;3.90;71.30;;;;;;5071222;28;20028;-73
2021/12/10 09:48:42;;;;;;;9.02;5.75;;;3.90;71.00;;;;;;5068623;28;20025;-74
2021/12/10 09:51:14;;;;;;;9.18;5.53;;;3.90;70.90;;;;;;5053511;28;20086;-73
2021/12/10 09:53:44;;;;;;;10.13;5.68;;;4.00;70.80;;;;;;5070369;28;20082;-74
2021/12/10 09:56:14;;;;;;;15.45;8.32;;;4.00;70.70;;;;;;5052438;28;20056;-74
2021/12/10 09:58:39;;;;;;;12.05;6.30;;;4.10;70.80;;;;;;5065639;28;20083;-74
2021/12/10 10:01:18;;;;;;;28.52;11.68;;;4.10;70.80;;;;;;5055367;28;20052;-73
2021/12/10 10:03:48;;;;;;;9.93;6.57;;;4.20;70.70;;;;;;5067352;28;20078;-73
2021/12/10 10:06:17;;;;;;;15.05;9.05;;;4.30;70.70;;;;;;5056251;28;20025;-71
2021/12/10 10:08:45;;;;;;;16.60;8.90;;;4.30;70.50;;;;;;5045414;28;20074;-71
2021/12/10 10:11:15;;;;;;;53.70;27.67;;;4.40;70.40;;;;;;5059748;28;20121;-72
2021/12/10 10:13:45;;;;;;;23.98;14.48;;;4.50;70.10;;;;;;5052568;28;20099;-73
2021/12/10 10:16:11;;;;;;;11.27;7.55;;;4.50;69.90;;;;;;5053190;28;20016;-73
2021/12/10 10:18:39;;;;;;;7.70;4.82;;;4.60;69.90;;;;;;5070125;28;20060;-73
2021/12/10 10:21:14;;;;;;;8.75;4.65;;;4.60;69.70;;;;;;5050548;28;20032;-73
2021/12/10 10:23:42;;;;;;;8.02;5.03;;;4.70;69.40;;;;;;5067971;28;20028;-73
2021/12/10 10:26:12;;;;;;;13.55;6.10;;;4.70;69.40;;;;;;5047664;28;20122;-73
2021/12/10 10:28:39;;;;;;;16.45;8.18;;;4.80;69.30;;;;;;5056422;28;20111;-72
2021/12/10 10:31:11;;;;;;;10.63;5.75;;;4.80;69.10;;;;;;5053893;28;20025;-73
2021/12/10 10:33:39;;;;;;;9.40;6.60;;;4.90;69.00;;;;;;5067040;28;20071;-73
2021/12/10 10:36:18;;;;;;;13.98;5.72;;;4.90;69.10;;;;;;5052728;28;20385;-72
2021/12/10 10:38:59;;;;;;;7.00;5.35;;;4.90;68.90;;;;;;5059829;28;20465;-73
2021/12/10 10:41:27;;;;;;;8.38;5.43;;;5.00;68.80;;;;;;5061479;28;20032;-73
2021/12/10 10:43:54;;;;;;;8.82;5.38;;;5.00;68.60;;;;;;5047230;28;20025;-73
2021/12/10 10:46:20;;;;;;;9.40;4.75;;;5.00;68.50;;;;;;5062113;28;20032;-73
2021/12/10 10:48:48;;;;;;;10.60;6.00;;;5.00;68.50;;;;;;5091588;28;20114;-73
2021/12/10 10:51:18;;;;;;;9.60;4.75;;;5.00;68.40;;;;;;5076715;28;20059;-73
2021/12/10 10:53:47;;;;;;;12.20;6.38;;;5.00;68.40;;;;;;5057605;28;20040;-73
2021/12/10 10:56:25;;;;;;;11.25;6.93;;;5.00;68.30;;;;;;5074147;28;20020;-73
2021/12/10 10:58:56;;;;;;;12.00;7.35;;;5.00;68.10;;;;;;5074815;28;20070;-73
2021/12/10 11:01:34;;;;;;;12.23;7.38;;;5.00;68.30;;;;;;5072763;28;20536;-72
2021/12/10 11:04:05;;;;;;;9.15;5.80;;;5.00;68.10;;;;;;5048628;28;20074;-72
2021/12/10 11:06:40;;;;;;;6.93;4.80;;;5.10;68.20;;;;;;5055455;28;20224;-72
2021/12/10 11:09:34;;;;;;;8.82;4.88;;;5.10;67.90;;;;;;5055502;28;20029;-72
2021/12/10 11:12:04;;;;;;;7.43;4.68;;;5.10;67.70;;;;;;5055090;28;20108;-72
2021/12/10 11:14:34;;;;;;;7.88;4.00;;;5.10;67.80;;;;;;5055732;28;20024;-73
2021/12/10 11:17:25;;;;;;;6.78;4.75;;;5.00;67.80;;;;;;5061669;28;20029;-72
2021/12/10 11:20:02;;;;;;;5.97;4.13;;;5.10;67.40;;;;;;5070056;28;20036;-72
2021/12/10 11:22:29;;;;;;;7.35;4.15;;;5.10;68.00;;;;;;5075151;28;20386;-73
2021/12/10 11:25:03;;;;;;;6.85;4.00;;;5.10;68.00;;;;;;5057210;28;20405;-73
2021/12/10 11:27:36;;;;;;;6.90;3.85;;;5.10;67.80;;;;;;5075170;28;20021;-73
2021/12/10 11:30:01;;;;;;;8.38;4.30;;;5.10;67.80;;;;;;5074971;28;20028;-73
2021/12/10 11:32:30;;;;;;;6.13;3.35;;;5.10;67.40;;;;;;5074833;28;20036;-73
2021/12/10 11:35:23;;;;;;;8.07;3.85;;;5.10;67.20;;;;;;5068758;28;20021;-73
2021/12/10 11:38:08;;;;;;;6.72;3.63;;;5.10;66.60;;;;;;5075006;28;20024;-73
2021/12/10 11:40:46;;;;;;;9.00;5.97;;;5.10;67.20;;;;;;5074891;28;20020;-73
2021/12/10 11:48:47;;;;;;;11.35;5.30;;;5.00;67.50;;;;;;5058234;28;20445;-73
2021/12/10 11:51:25;;;;;;;14.07;7.07;;;5.00;67.30;;;;;;5069042;28;20111;-73
2021/12/10 11:53:59;;;;;;;9.15;5.57;;;5.00;67.10;;;;;;5036661;28;20079;-73
2021/12/10 11:56:39;;;;;;;15.32;9.15;;;5.00;67.20;;;;;;5047479;28;20507;-73
2021/12/10 11:59:07;;;;;;;16.33;8.60;;;5.00;67.00;;;;;;5066378;28;20055;-72
2021/12/10 12:01:57;;;;;;;21.13;10.63;;;5.00;67.50;;;;;;5075188;28;20027;-72
2021/12/10 12:04:34;;;;;;;12.77;7.38;;;5.00;67.30;;;;;;5069395;28;20532;-73
2021/12/10 12:07:18;;;;;;;19.35;6.43;;;5.00;67.20;;;;;;5074324;28;20074;-73
2021/12/10 12:09:49;;;;;;;12.68;5.57;;;5.00;66.20;;;;;;5059884;28;20080;-73
2021/12/10 12:12:20;;;;;;;14.05;6.00;;;5.00;66.80;;;;;;5064583;28;20029;-73
2021/12/10 12:14:54;;;;;;;12.30;6.32;;;5.00;66.90;;;;;;5038291;28;20136;-73
2021/12/10 12:17:38;;;;;;;8.93;5.57;;;5.00;67.10;;;;;;5053924;28;20047;-73
2021/12/10 12:20:22;;;;;;;5.55;3.50;;;5.00;67.10;;;;;;5067141;28;20569;-72
2021/12/10 12:25:42;;;;;;;6.90;3.22;;;4.90;66.40;;;;;;5074193;28;20040;-72
2021/12/10 12:28:12;;;;;;;5.22;2.92;;;4.90;66.60;;;;;;5065211;28;20025;-72
2021/12/10 12:31:08;;;;;;;3.55;2.35;;;4.90;66.00;;;;;;5070415;28;20028;-72
2021/12/10 12:33:57;;;;;;;3.53;2.60;;;4.80;64.60;;;;;;5053701;28;20127;-72
2021/12/10 12:36:51;;;;;;;5.50;3.05;;;4.80;65.40;;;;;;5053509;28;20017;-72
2021/12/10 12:39:38;;;;;;;4.15;2.47;;;4.70;64.90;;;;;;5062949;28;20035;-72
2021/12/10 12:42:22;;;;;;;7.95;4.38;;;4.60;65.00;;;;;;5075298;28;20496;-72
2021/12/10 12:44:54;;;;;;;4.07;2.80;;;4.60;65.70;;;;;;5055925;28;20028;-72
2021/12/10 12:47:19;;;;;;;7.90;2.95;;;4.50;65.80;;;;;;5060637;28;20036;-71
2021/12/10 12:49:48;;;;;;;4.25;2.67;;;4.50;65.90;;;;;;5072289;28;20024;-71
2021/12/10 12:52:29;;;;;;;6.22;3.38;;;4.50;65.80;;;;;;5069490;28;20032;-72
2021/12/10 12:55:04;;;;;;;4.20;2.45;;;4.50;65.80;;;;;;5053011;28;20024;-72
2021/12/10 12:57:41;;;;;;;5.30;2.80;;;4.50;65.60;;;;;;5051534;28;20044;-71
2021/12/10 13:00:11;;;;;;;3.53;2.42;;;4.50;65.80;;;;;;5070045;28;20030;-71
2021/12/10 13:02:37;;;;;;;4.68;2.78;;;4.50;66.00;;;;;;5066489;28;20037;-71
2021/12/10 13:05:05;;;;;;;8.18;3.40;;;4.50;66.10;;;;;;5061154;28;20413;-72
2021/12/10 13:07:31;;;;;;;6.38;2.92;;;4.40;66.10;;;;;;5065493;28;20032;-72
2021/12/10 13:10:02;;;;;;;6.90;3.25;;;4.40;65.90;;;;;;5037612;28;20029;-71
2021/12/10 13:12:56;;;;;;;6.18;3.30;;;4.40;66.10;;;;;;5056552;28;20029;-71
2021/12/10 13:15:27;;;;;;;5.88;3.63;;;4.40;67.00;;;;;;5044740;28;20103;-71